Time;durP1;ratioP1;P1;durP2;ratioP2;P2;SDS_P1;SDS_P2;PMS_P1;PMS_P2;Temp;Humidity;BMP_temperature;BMP_pressure;BME280_temperature;BME280_humidity;BME280_pressure;Samples;Min_cycle;Max_cycle;Signal;HPM_P1;HPM_P2
2023/12/03 00:01:52;;;;;;;1.73;1.58;;;24.90;29.50;;;;;;5108143;28;20043;-66
2023/12/03 00:04:18;;;;;;;2.55;2.05;;;25.00;29.50;;;;;;5108087;28;20441;-67
2023/12/03 00:06:44;;;;;;;2.08;1.70;;;25.00;29.50;;;;;;5109430;28;20119;-68
2023/12/03 00:09:10;;;;;;;1.88;1.52;;;24.90;29.50;;;;;;5108153;28;20131;-67
2023/12/03 00:11:35;;;;;;;1.88;1.70;;;24.70;29.60;;;;;;5108269;28;20449;-68
2023/12/03 00:14:01;;;;;;;1.83;1.38;;;24.60;29.80;;;;;;5109144;28;20036;-65
2023/12/03 00:16:26;;;;;;;2.13;1.63;;;24.40;30.00;;;;;;5107957;28;20526;-67
2023/12/03 00:18:52;;;;;;;2.10;1.90;;;24.20;30.10;;;;;;5107739;28;20114;-68
2023/12/03 00:21:20;;;;;;;2.30;1.80;;;24.00;30.30;;;;;;5109012;28;20040;-68
2023/12/03 00:23:46;;;;;;;1.58;1.38;;;23.80;30.60;;;;;;5108833;28;20028;-68
2023/12/03 00:26:12;;;;;;;2.25;1.40;;;23.60;30.90;;;;;;5107708;28;20100;-67
2023/12/03 00:28:38;;;;;;;2.50;1.65;;;23.40;31.20;;;;;;5107613;28;20364;-67
2023/12/03 00:31:03;;;;;;;1.80;1.30;;;23.20;31.40;;;;;;5108960;28;20052;-68
2023/12/03 00:33:32;;;;;;;1.88;1.45;;;23.00;31.60;;;;;;5107629;28;20051;-67
2023/12/03 00:35:59;;;;;;;1.60;1.08;;;22.80;32.00;;;;;;5108675;28;20040;-68
2023/12/03 00:38:25;;;;;;;1.45;1.35;;;22.60;32.20;;;;;;5108639;28;20491;-66
2023/12/03 00:40:51;;;;;;;1.50;1.30;;;22.40;32.50;;;;;;5107283;28;20051;-65
2023/12/03 00:43:16;;;;;;;1.83;1.40;;;22.20;32.70;;;;;;5090705;28;20544;-68
2023/12/03 00:45:42;;;;;;;1.55;1.40;;;22.10;33.00;;;;;;5108709;28;20529;-67
2023/12/03 00:48:07;;;;;;;1.73;1.33;;;21.90;33.20;;;;;;5107554;28;20040;-66
2023/12/03 00:50:33;;;;;;;1.95;1.30;;;21.70;33.50;;;;;;5108588;28;20034;-68
2023/12/03 00:52:59;;;;;;;2.05;1.73;;;21.50;33.70;;;;;;5097120;28;20116;-67
2023/12/03 00:55:24;;;;;;;2.20;1.63;;;21.30;33.90;;;;;;5093745;28;20128;-66
2023/12/03 00:57:50;;;;;;;1.83;1.30;;;21.20;34.20;;;;;;5093550;28;20075;-67
2023/12/03 01:00:17;;;;;;;1.85;1.60;;;21.00;35.10;;;;;;5094646;28;20074;-68
2023/12/03 01:02:42;;;;;;;2.38;1.60;;;20.80;34.60;;;;;;5093533;28;20044;-67
2023/12/03 01:05:08;;;;;;;1.95;1.30;;;20.70;34.80;;;;;;5093652;28;20059;-65
2023/12/03 01:07:34;;;;;;;1.63;1.52;;;20.60;35.00;;;;;;5093636;28;20471;-66
2023/12/03 01:10:00;;;;;;;1.70;1.20;;;20.40;35.20;;;;;;5093457;28;20039;-65
2023/12/03 01:12:26;;;;;;;2.30;1.55;;;20.30;35.40;;;;;;5093351;28;20059;-67
2023/12/03 01:14:51;;;;;;;1.80;1.50;;;20.20;35.60;;;;;;5093175;28;20044;-68
2023/12/03 01:17:17;;;;;;;2.83;2.03;;;20.00;35.80;;;;;;5093470;28;20376;-66
2023/12/03 01:19:42;;;;;;;2.10;1.65;;;19.90;36.00;;;;;;5092908;28;20047;-67
2023/12/03 01:22:08;;;;;;;2.00;1.48;;;19.80;36.20;;;;;;5093308;28;20036;-67
2023/12/03 01:24:34;;;;;;;1.60;1.50;;;19.70;36.40;;;;;;5092910;28;20040;-65
2023/12/03 01:26:59;;;;;;;1.95;1.42;;;19.50;36.50;;;;;;5093177;28;20090;-66
2023/12/03 01:29:25;;;;;;;1.80;1.38;;;19.40;36.70;;;;;;5093236;28;20054;-66
2023/12/03 01:31:50;;;;;;;2.10;1.55;;;19.30;36.90;;;;;;5094069;28;20542;-67
2023/12/03 01:34:16;;;;;;;2.05;1.70;;;19.20;37.10;;;;;;5094194;28;20042;-67
2023/12/03 01:36:42;;;;;;;2.15;1.45;;;19.10;37.30;;;;;;5093951;28;20042;-68
2023/12/03 01:39:07;;;;;;;2.45;1.83;;;19.00;37.50;;;;;;5092974;28;20429;-68
2023/12/03 01:41:33;;;;;;;2.35;1.90;;;18.90;37.60;;;;;;5092389;28;20074;-66
2023/12/03 01:43:59;;;;;;;1.58;1.48;;;18.80;37.80;;;;;;5092860;28;20047;-66
2023/12/03 01:46:26;;;;;;;1.65;1.45;;;18.70;38.00;;;;;;5092989;28;20082;-67
2023/12/03 01:48:53;;;;;;;2.03;1.40;;;18.50;38.10;;;;;;5092546;28;20044;-68
2023/12/03 01:51:19;;;;;;;2.45;1.40;;;18.50;38.30;;;;;;5092715;28;20044;-67
2023/12/03 01:53:46;;;;;;;1.88;1.45;;;18.40;38.50;;;;;;5093757;28;20445;-67
2023/12/03 01:56:12;;;;;;;1.80;1.70;;;18.30;38.50;;;;;;5093516;28;20044;-67
2023/12/03 01:58:39;;;;;;;2.60;1.63;;;18.20;38.60;;;;;;5092608;28;20062;-67
2023/12/03 02:01:06;;;;;;;2.20;1.90;;;18.20;38.80;;;;;;5092301;28;20048;-66
2023/12/03 02:03:31;;;;;;;2.08;1.58;;;18.10;38.90;;;;;;5092660;28;20040;-67
2023/12/03 02:08:45;;;;;;;2.25;1.40;;;18.00;38.90;;;;;;5150881;27;20113;-66
2023/12/03 02:11:11;;;;;;;2.00;1.63;;;17.90;39.20;;;;;;5167053;27;20043;-67
2023/12/03 02:13:38;;;;;;;2.17;1.63;;;17.80;39.20;;;;;;5166846;27;20057;-68
2023/12/03 02:16:05;;;;;;;2.22;1.90;;;17.80;39.40;;;;;;5132337;27;20091;-68
2023/12/03 02:18:33;;;;;;;1.63;1.52;;;17.70;39.50;;;;;;5132438;27;20043;-68
2023/12/03 02:20:59;;;;;;;1.98;1.60;;;17.70;39.60;;;;;;5132511;27;20045;-66
2023/12/03 02:23:28;;;;;;;1.95;1.75;;;17.60;39.70;;;;;;5132053;27;20421;-67
2023/12/03 02:25:53;;;;;;;1.90;1.30;;;17.50;39.70;;;;;;5166711;27;20043;-67
2023/12/03 02:28:19;;;;;;;2.42;1.77;;;17.50;39.80;;;;;;5132007;27;20087;-68
2023/12/03 02:30:45;;;;;;;2.25;1.83;;;17.40;39.80;;;;;;5132185;27;20439;-68
2023/12/03 02:33:10;;;;;;;2.03;1.70;;;17.40;39.90;;;;;;5132146;27;20030;-67
2023/12/03 02:35:36;;;;;;;2.47;1.75;;;17.40;40.10;;;;;;5150425;27;20367;-68
2023/12/03 02:38:02;;;;;;;2.20;1.83;;;17.20;40.10;;;;;;5131702;27;20425;-66
2023/12/03 02:40:32;;;;;;;2.03;1.90;;;17.30;40.20;;;;;;5150377;27;20397;-67
2023/12/03 02:42:58;;;;;;;2.17;1.95;;;17.20;40.30;;;;;;5150421;27;20493;-65
2023/12/03 02:45:24;;;;;;;2.15;1.60;;;17.10;40.30;;;;;;5150316;27;20042;-67
2023/12/03 02:47:49;;;;;;;2.03;1.50;;;17.10;40.50;;;;;;5150109;27;20042;-67
2023/12/03 02:50:15;;;;;;;1.88;1.38;;;17.40;40.30;;;;;;5150281;27;20486;-68
2023/12/03 02:52:41;;;;;;;1.75;1.65;;;17.70;39.70;;;;;;5131600;27;20039;-66
2023/12/03 02:55:08;;;;;;;2.08;1.80;;;18.10;39.10;;;;;;5150040;27;20111;-68
2023/12/03 02:57:35;;;;;;;1.58;1.30;;;18.60;38.30;;;;;;5150101;27;20079;-65
2023/12/03 03:00:01;;;;;;;1.63;1.38;;;19.20;37.40;;;;;;5131415;27;20493;-67
2023/12/03 03:02:27;;;;;;;2.10;1.45;;;19.90;36.30;;;;;;5131452;27;20100;-68
2023/12/03 03:04:53;;;;;;;1.98;1.40;;;20.60;35.10;;;;;;5131347;27;20046;-67
2023/12/03 03:07:19;;;;;;;1.83;1.17;;;21.40;34.10;;;;;;5131066;27;20039;-67
2023/12/03 03:09:44;;;;;;;1.50;0.93;;;22.00;33.20;;;;;;5131102;27;20031;-69
2023/12/03 03:12:10;;;;;;;1.75;1.40;;;22.50;32.40;;;;;;5131496;27;20039;-69
2023/12/03 03:14:35;;;;;;;1.95;1.35;;;23.00;31.80;;;;;;5149696;27;20050;-70
2023/12/03 03:17:01;;;;;;;1.65;1.20;;;23.30;31.30;;;;;;5131490;27;20068;-70
2023/12/03 03:19:26;;;;;;;2.00;1.75;;;23.60;30.90;;;;;;5139473;27;20121;-71
2023/12/03 03:21:52;;;;;;;1.70;1.33;;;23.90;30.60;;;;;;5117484;27;20043;-67
2023/12/03 03:24:18;;;;;;;1.77;1.27;;;24.20;30.30;;;;;;5135642;27;20027;-68
2023/12/03 03:26:43;;;;;;;1.20;1.08;;;24.40;30.10;;;;;;5117241;27;20479;-68
2023/12/03 03:29:09;;;;;;;1.88;1.48;;;24.50;30.60;;;;;;5117251;27;20031;-70
2023/12/03 03:31:35;;;;;;;2.03;1.35;;;24.60;30.00;;;;;;5135674;27;20042;-70
2023/12/03 03:34:00;;;;;;;1.67;1.15;;;24.50;29.90;;;;;;5117399;27;20459;-68
2023/12/03 03:36:26;;;;;;;1.63;1.20;;;24.50;30.00;;;;;;5117468;27;20046;-69
2023/12/03 03:38:51;;;;;;;1.70;1.30;;;24.30;30.10;;;;;;5117355;27;20043;-69
2023/12/03 03:41:17;;;;;;;2.13;1.65;;;24.20;30.30;;;;;;5116912;27;20043;-69
2023/12/03 03:43:43;;;;;;;1.40;1.10;;;24.00;30.50;;;;;;5117051;27;20031;-68
2023/12/03 03:46:10;;;;;;;2.03;1.35;;;23.90;30.80;;;;;;5135244;27;20035;-67
2023/12/03 03:48:36;;;;;;;2.03;1.20;;;23.70;31.00;;;;;;5116843;27;20070;-70
2023/12/03 03:51:01;;;;;;;1.60;1.50;;;23.50;31.20;;;;;;5135315;27;20519;-70
2023/12/03 03:53:27;;;;;;;1.92;1.38;;;23.30;31.50;;;;;;5116857;27;20478;-70
2023/12/03 03:55:52;;;;;;;1.83;1.27;;;23.10;31.70;;;;;;5116895;27;20058;-69
2023/12/03 03:58:18;;;;;;;1.60;1.40;;;22.90;32.00;;;;;;5135137;27;20039;-70
2023/12/03 04:00:44;;;;;;;2.05;1.52;;;22.80;32.30;;;;;;5116581;27;20039;-69
2023/12/03 04:03:09;;;;;;;1.63;1.30;;;22.60;32.50;;;;;;5135217;27;20039;-69
2023/12/03 04:05:35;;;;;;;2.22;1.33;;;22.40;32.80;;;;;;5116843;27;20038;-67
2023/12/03 04:08:00;;;;;;;2.15;1.73;;;22.20;33.00;;;;;;5116353;27;20500;-70
2023/12/03 04:10:26;;;;;;;2.65;1.75;;;22.00;33.20;;;;;;5134720;27;20051;-70
2023/12/03 04:12:52;;;;;;;2.17;1.60;;;21.80;33.40;;;;;;5116415;27;20042;-70
2023/12/03 04:15:18;;;;;;;1.10;0.95;;;21.70;33.80;;;;;;5116418;27;20084;-70
2023/12/03 04:17:44;;;;;;;2.28;1.73;;;21.50;34.00;;;;;;5134678;27;20043;-70
2023/12/03 04:20:10;;;;;;;3.03;1.75;;;21.30;34.20;;;;;;5116240;27;20498;-69
2023/12/03 04:22:37;;;;;;;2.10;1.42;;;21.20;34.40;;;;;;5116554;27;20035;-69
2023/12/03 04:25:02;;;;;;;1.88;1.52;;;21.00;34.70;;;;;;5116412;27;20066;-68
2023/12/03 04:27:28;;;;;;;2.38;1.75;;;20.90;35.00;;;;;;5116081;27;20497;-70
2023/12/03 04:29:54;;;;;;;2.78;1.95;;;20.70;35.10;;;;;;5115373;28;20485;-67
2023/12/03 04:32:19;;;;;;;2.45;1.88;;;20.60;35.30;;;;;;5115683;27;20035;-70
2023/12/03 04:34:45;;;;;;;1.85;1.58;;;20.50;35.50;;;;;;5116070;27;20126;-69
2023/12/03 04:37:11;;;;;;;2.13;1.80;;;20.40;35.80;;;;;;5116015;27;20062;-69
2023/12/03 04:39:36;;;;;;;2.00;1.55;;;20.20;35.90;;;;;;5116171;27;20047;-69
2023/12/03 04:42:02;;;;;;;1.83;1.50;;;20.10;36.10;;;;;;5116004;27;20039;-69
2023/12/03 04:44:30;;;;;;;2.20;1.80;;;20.00;36.40;;;;;;5116084;27;20436;-69
2023/12/03 04:46:56;;;;;;;2.30;1.65;;;19.80;36.50;;;;;;5115588;27;20039;-70
2023/12/03 04:49:21;;;;;;;2.65;1.73;;;19.70;36.70;;;;;;5134124;27;20039;-71
2023/12/03 04:51:47;;;;;;;2.35;1.90;;;19.60;36.90;;;;;;5115850;27;20047;-69
2023/12/03 04:54:13;;;;;;;2.42;2.03;;;19.40;37.10;;;;;;5115629;27;20397;-70
2023/12/03 04:56:38;;;;;;;2.38;1.67;;;19.30;37.30;;;;;;5133949;27;20035;-69
2023/12/03 04:59:04;;;;;;;2.55;1.98;;;19.20;37.40;;;;;;5133798;27;20039;-69
2023/12/03 05:01:30;;;;;;;2.50;1.52;;;19.10;37.60;;;;;;5133848;27;20041;-68
2023/12/03 05:03:56;;;;;;;2.33;2.03;;;19.00;37.80;;;;;;5115306;27;20047;-68
2023/12/03 05:06:21;;;;;;;2.22;1.65;;;19.00;38.00;;;;;;5115166;27;20042;-69
2023/12/03 05:08:47;;;;;;;2.55;2.20;;;18.80;38.00;;;;;;5115253;27;20091;-69
2023/12/03 05:11:13;;;;;;;2.22;1.83;;;18.80;38.20;;;;;;5115383;27;20123;-68
2023/12/03 05:13:38;;;;;;;2.00;1.70;;;18.70;38.40;;;;;;5115061;27;20393;-70
2023/12/03 05:16:04;;;;;;;3.28;2.08;;;18.60;38.50;;;;;;5133783;27;20031;-70
2023/12/03 05:18:31;;;;;;;3.05;1.73;;;18.50;38.60;;;;;;5115097;27;20474;-70
2023/12/03 05:20:57;;;;;;;2.35;1.95;;;18.40;38.80;;;;;;5133516;27;20497;-67
2023/12/03 05:23:23;;;;;;;2.47;2.13;;;18.30;38.90;;;;;;5133526;27;20062;-68
2023/12/03 05:25:49;;;;;;;2.28;1.67;;;18.30;39.00;;;;;;5115267;27;20432;-70
2023/12/03 05:28:15;;;;;;;2.17;1.60;;;18.20;39.00;;;;;;5114814;27;20043;-69
2023/12/03 05:30:41;;;;;;;2.72;2.03;;;18.20;39.20;;;;;;5115243;27;20118;-68
2023/12/03 05:33:06;;;;;;;1.98;1.60;;;18.10;39.20;;;;;;5133182;27;20046;-68
2023/12/03 05:35:32;;;;;;;2.50;1.65;;;18.10;39.40;;;;;;5114884;27;20478;-69
2023/12/03 05:37:58;;;;;;;2.08;1.65;;;18.00;39.40;;;;;;5133190;27;20034;-68
2023/12/03 05:40:24;;;;;;;2.28;1.77;;;17.90;39.50;;;;;;5114798;27;20039;-67
2023/12/03 05:42:50;;;;;;;2.67;2.13;;;17.80;39.60;;;;;;5114711;27;20046;-67
2023/12/03 05:45:16;;;;;;;3.17;2.05;;;17.80;39.70;;;;;;5114697;27;20050;-69
2023/12/03 05:47:41;;;;;;;2.22;1.83;;;17.80;39.80;;;;;;5133009;27;20114;-67
2023/12/03 05:50:07;;;;;;;2.15;1.85;;;17.70;39.80;;;;;;5133065;27;20486;-69
2023/12/03 05:52:33;;;;;;;2.45;2.25;;;17.70;40.00;;;;;;5133147;27;20031;-69
2023/12/03 05:54:58;;;;;;;3.47;2.42;;;17.60;40.00;;;;;;5132899;27;20042;-69
2023/12/03 05:57:24;;;;;;;2.42;1.75;;;17.50;40.10;;;;;;5132944;27;20039;-69
2023/12/03 05:59:50;;;;;;;2.70;2.10;;;17.50;40.20;;;;;;5132734;27;20295;-68
2023/12/03 06:02:17;;;;;;;2.47;2.03;;;17.40;40.20;;;;;;5114733;27;20035;-69
2023/12/03 06:04:42;;;;;;;2.88;2.03;;;17.40;40.30;;;;;;5132931;27;20118;-69
2023/12/03 06:07:08;;;;;;;3.20;2.13;;;17.40;40.40;;;;;;5114179;28;20130;-68
2023/12/03 06:09:34;;;;;;;2.63;2.42;;;17.30;40.50;;;;;;5114583;28;20100;-69
2023/12/03 06:11:59;;;;;;;2.40;2.15;;;17.30;40.60;;;;;;5114381;28;20070;-69
2023/12/03 06:14:26;;;;;;;2.90;2.28;;;17.20;40.60;;;;;;5114513;28;20520;-70
2023/12/03 06:16:51;;;;;;;2.90;1.95;;;17.20;40.70;;;;;;5114314;28;20051;-70
2023/12/03 06:19:17;;;;;;;2.47;1.88;;;17.10;40.80;;;;;;5114548;28;20046;-71
2023/12/03 06:21:43;;;;;;;2.67;1.70;;;17.00;40.80;;;;;;5114510;28;20039;-69
2023/12/03 06:24:08;;;;;;;2.83;2.13;;;17.10;41.00;;;;;;5114292;28;20471;-70
2023/12/03 06:26:34;;;;;;;2.50;1.95;;;17.40;40.50;;;;;;5132569;28;20031;-68
2023/12/03 06:29:00;;;;;;;2.88;2.00;;;17.80;39.80;;;;;;5132557;28;20432;-70
2023/12/03 06:31:26;;;;;;;2.47;1.88;;;18.30;39.20;;;;;;5132491;28;20504;-70
2023/12/03 06:33:52;;;;;;;2.95;2.08;;;18.80;38.30;;;;;;5114439;28;20043;-67
2023/12/03 06:36:18;;;;;;;2.08;1.63;;;19.50;37.30;;;;;;5114061;28;20466;-69
2023/12/03 06:38:44;;;;;;;2.22;1.80;;;20.20;36.10;;;;;;5114423;28;20051;-68
2023/12/03 06:41:10;;;;;;;2.30;1.75;;;21.00;35.00;;;;;;5114158;28;20043;-69
2023/12/03 06:43:36;;;;;;;2.95;1.88;;;21.70;34.00;;;;;;5114146;28;20351;-70
2023/12/03 06:46:01;;;;;;;2.28;1.98;;;22.30;33.00;;;;;;5114056;28;20047;-69
2023/12/03 06:48:27;;;;;;;1.83;1.65;;;22.90;32.20;;;;;;5132385;28;20039;-69
2023/12/03 06:50:53;;;;;;;2.38;1.58;;;23.40;31.50;;;;;;5132583;28;20038;-68
2023/12/03 06:53:19;;;;;;;2.00;1.60;;;23.80;31.00;;;;;;5132908;27;20066;-68
2023/12/03 06:55:45;;;;;;;2.38;1.50;;;24.20;30.50;;;;;;5118132;27;20063;-70
2023/12/03 06:58:11;;;;;;;2.50;1.55;;;24.50;30.10;;;;;;5136318;27;20439;-70
2023/12/03 07:00:37;;;;;;;2.60;1.73;;;24.80;29.90;;;;;;5136257;27;20039;-69
2023/12/03 07:03:03;;;;;;;3.20;2.42;;;25.00;29.70;;;;;;5118026;27;20049;-69
2023/12/03 07:05:29;;;;;;;2.17;1.83;;;25.00;29.60;;;;;;5136123;27;20047;-67
2023/12/03 07:07:54;;;;;;;2.35;1.83;;;25.00;29.70;;;;;;5117327;27;20504;-69
2023/12/03 07:10:20;;;;;;;1.90;1.35;;;24.90;29.70;;;;;;5136024;27;20130;-69
2023/12/03 07:12:46;;;;;;;1.60;1.02;;;24.70;29.90;;;;;;5117491;27;20046;-69
2023/12/03 07:15:12;;;;;;;2.65;1.70;;;24.60;30.00;;;;;;5117523;27;20122;-69
2023/12/03 07:17:41;;;;;;;2.25;1.67;;;24.50;30.20;;;;;;5117387;27;20052;-67
2023/12/03 07:20:08;;;;;;;2.83;1.80;;;24.30;30.50;;;;;;5117712;27;20051;-70
2023/12/03 07:22:34;;;;;;;2.03;1.40;;;24.10;30.70;;;;;;5117403;27;20078;-67
2023/12/03 07:25:00;;;;;;;4.03;2.33;;;23.90;30.90;;;;;;5135826;27;20293;-69
2023/12/03 07:27:25;;;;;;;2.00;1.23;;;23.70;31.20;;;;;;5117268;27;20047;-67
2023/12/03 07:29:55;;;;;;;2.45;1.83;;;23.50;31.50;;;;;;5135806;27;20038;-70
2023/12/03 07:32:22;;;;;;;2.13;1.60;;;23.30;31.70;;;;;;5135541;27;20039;-69
2023/12/03 07:34:49;;;;;;;1.55;1.17;;;23.10;32.00;;;;;;5117261;27;20043;-69
2023/12/03 07:37:14;;;;;;;2.17;1.60;;;22.90;32.20;;;;;;5117209;27;20043;-69
2023/12/03 07:39:40;;;;;;;2.08;1.38;;;22.70;32.50;;;;;;5117176;27;20076;-69
2023/12/03 07:42:06;;;;;;;1.90;1.27;;;22.50;32.80;;;;;;5135428;27;20049;-69
2023/12/03 07:44:32;;;;;;;2.08;1.40;;;22.40;33.00;;;;;;5117218;27;20050;-69
2023/12/03 07:46:58;;;;;;;2.08;1.63;;;22.20;33.30;;;;;;5116839;27;20074;-70
2023/12/03 07:49:24;;;;;;;1.98;1.23;;;22.00;33.50;;;;;;5135429;27;20063;-69
2023/12/03 07:51:50;;;;;;;1.88;1.50;;;21.80;33.80;;;;;;5116775;27;20133;-69
2023/12/03 07:54:17;;;;;;;1.85;1.33;;;21.60;34.00;;;;;;5135232;27;20409;-67
2023/12/03 07:56:42;;;;;;;1.90;1.30;;;21.50;34.30;;;;;;5116820;27;20043;-69
2023/12/03 07:59:08;;;;;;;2.55;1.75;;;21.30;34.50;;;;;;5135009;27;20042;-69
2023/12/03 08:01:35;;;;;;;2.53;1.60;;;21.20;34.70;;;;;;5134985;27;20043;-70
2023/12/03 08:04:01;;;;;;;2.35;1.70;;;21.00;35.00;;;;;;5134951;27;20493;-69
2023/12/03 08:06:27;;;;;;;2.55;1.63;;;20.90;35.20;;;;;;5116102;27;20050;-67
2023/12/03 08:08:53;;;;;;;2.53;1.63;;;20.70;35.40;;;;;;5134989;27;20047;-69
2023/12/03 08:11:19;;;;;;;2.58;1.77;;;20.60;35.60;;;;;;5116447;27;20047;-69
2023/12/03 08:13:46;;;;;;;2.10;1.23;;;20.50;35.80;;;;;;5116366;27;20112;-70
2023/12/03 08:16:11;;;;;;;1.85;1.45;;;20.30;36.00;;;;;;5116262;27;20043;-69
2023/12/03 08:18:37;;;;;;;2.53;1.85;;;20.20;36.20;;;;;;5134842;27;20039;-67
2023/12/03 08:21:03;;;;;;;2.22;1.40;;;20.10;36.40;;;;;;5116226;27;20035;-69
2023/12/03 08:23:31;;;;;;;2.28;1.60;;;20.00;36.60;;;;;;5134784;27;20042;-65
2023/12/03 08:25:56;;;;;;;2.20;1.30;;;19.80;36.70;;;;;;5116341;27;20039;-67
2023/12/03 08:28:23;;;;;;;2.47;1.83;;;19.70;36.90;;;;;;5116178;27;20522;-65
2023/12/03 08:30:48;;;;;;;1.88;1.33;;;19.60;37.10;;;;;;5134335;27;20509;-67
2023/12/03 08:33:14;;;;;;;2.05;1.20;;;19.50;37.30;;;;;;5116330;27;20082;-67
2023/12/03 08:35:40;;;;;;;2.00;1.52;;;19.40;37.40;;;;;;5134324;27;20527;-65
2023/12/03 08:38:06;;;;;;;2.88;1.73;;;19.30;37.60;;;;;;5115862;27;20043;-67
2023/12/03 08:40:32;;;;;;;2.30;1.65;;;19.20;37.70;;;;;;5115845;27;20052;-67
2023/12/03 08:42:58;;;;;;;2.88;1.92;;;19.10;37.90;;;;;;5116079;27;20047;-67
2023/12/03 08:45:24;;;;;;;3.10;2.10;;;19.00;38.00;;;;;;5134142;27;20089;-65
2023/12/03 08:47:50;;;;;;;3.72;2.15;;;19.00;38.20;;;;;;5115662;27;20505;-64
2023/12/03 08:50:16;;;;;;;2.30;2.10;;;18.90;38.30;;;;;;5115550;27;20043;-67
2023/12/03 08:52:41;;;;;;;2.50;1.88;;;18.80;38.40;;;;;;5134218;27;20035;-67
2023/12/03 08:55:08;;;;;;;2.42;1.95;;;18.70;38.50;;;;;;5115852;27;20042;-67
2023/12/03 08:57:35;;;;;;;2.25;1.73;;;18.60;38.70;;;;;;5115741;27;20047;-67
2023/12/03 09:00:00;;;;;;;2.28;1.55;;;18.50;38.80;;;;;;5134208;27;20039;-67
2023/12/03 09:02:26;;;;;;;2.20;1.85;;;18.50;39.00;;;;;;5115726;27;20536;-68
2023/12/03 09:04:52;;;;;;;1.83;1.55;;;18.40;39.00;;;;;;5115459;27;20506;-67
2023/12/03 09:07:17;;;;;;;2.60;2.08;;;18.30;39.10;;;;;;5098229;27;20046;-67
2023/12/03 09:09:43;;;;;;;2.78;1.80;;;18.30;39.20;;;;;;5115323;27;20475;-64
2023/12/03 09:12:09;;;;;;;2.67;2.03;;;18.20;39.30;;;;;;5133509;27;20066;-64
2023/12/03 09:14:35;;;;;;;2.30;1.85;;;18.20;39.40;;;;;;5115259;27;20516;-66
2023/12/03 09:17:03;;;;;;;2.15;1.95;;;18.10;39.50;;;;;;5132907;27;20118;-67
2023/12/03 09:19:29;;;;;;;2.17;1.80;;;18.00;39.60;;;;;;5115055;27;20375;-67
2023/12/03 09:21:55;;;;;;;3.20;1.98;;;18.00;39.70;;;;;;5115042;27;20077;-66
2023/12/03 09:24:20;;;;;;;3.03;1.80;;;17.90;39.70;;;;;;5133377;27;20110;-64
2023/12/03 09:26:47;;;;;;;2.28;1.77;;;17.90;39.90;;;;;;5115067;27;20490;-67
2023/12/03 09:29:13;;;;;;;2.72;1.98;;;17.80;39.80;;;;;;5115078;27;20541;-67
2023/12/03 09:31:39;;;;;;;2.50;2.03;;;17.80;40.00;;;;;;5114841;27;20039;-67
2023/12/03 09:34:06;;;;;;;2.20;1.67;;;17.70;40.00;;;;;;5114834;27;20046;-67
2023/12/03 09:36:31;;;;;;;2.70;2.17;;;17.70;40.10;;;;;;5133043;27;20046;-65
2023/12/03 09:38:57;;;;;;;3.75;2.60;;;17.60;40.10;;;;;;5114744;27;20350;-67
2023/12/03 09:41:24;;;;;;;2.05;1.55;;;17.60;40.20;;;;;;5133102;27;20035;-66
2023/12/03 09:43:55;;;;;;;2.78;2.35;;;17.50;40.30;;;;;;5114958;27;20046;-64
2023/12/03 09:46:23;;;;;;;3.10;2.08;;;17.50;40.40;;;;;;5133002;27;20042;-67
2023/12/03 09:48:50;;;;;;;2.47;2.15;;;17.50;40.50;;;;;;5114446;27;20379;-64
2023/12/03 09:51:18;;;;;;;2.20;1.73;;;17.40;40.50;;;;;;5133201;27;20034;-66
2023/12/03 09:53:46;;;;;;;2.63;1.85;;;17.40;40.50;;;;;;5132968;27;20506;-64
2023/12/03 09:56:13;;;;;;;2.63;2.15;;;17.30;40.60;;;;;;5132952;27;20038;-67
2023/12/03 09:58:39;;;;;;;2.72;2.28;;;17.30;40.70;;;;;;5114720;27;20070;-67
2023/12/03 10:01:05;;;;;;;2.58;1.98;;;17.20;40.70;;;;;;5114700;27;20043;-67
2023/12/03 10:03:31;;;;;;;2.20;1.90;;;17.10;40.80;;;;;;5132705;27;20093;-65
2023/12/03 10:05:57;;;;;;;2.30;1.60;;;17.10;40.90;;;;;;5114733;28;20055;-67
2023/12/03 10:08:23;;;;;;;2.83;1.85;;;17.10;40.90;;;;;;5114102;28;20058;-67
2023/12/03 10:10:58;;;;;;;2.92;2.42;;;17.10;40.90;;;;;;5132843;28;20046;-64
2023/12/03 10:13:25;;;;;;;2.55;1.98;;;17.10;41.00;;;;;;5114361;28;20039;-67
2023/12/03 10:15:51;;;;;;;2.33;2.00;;;17.10;41.00;;;;;;5114340;28;20050;-67
2023/12/03 10:18:16;;;;;;;3.42;2.33;;;17.00;41.00;;;;;;5114335;28;20043;-67
2023/12/03 10:20:43;;;;;;;2.50;1.80;;;17.00;41.00;;;;;;5132771;28;20036;-67
2023/12/03 10:23:16;;;;;;;3.03;2.08;;;17.00;41.00;;;;;;5132872;28;20081;-66
2023/12/03 10:25:41;;;;;;;2.33;1.77;;;17.00;41.10;;;;;;5132762;28;20061;-67
2023/12/03 10:28:08;;;;;;;2.85;1.90;;;17.00;41.10;;;;;;5114168;28;20489;-67
2023/12/03 10:30:36;;;;;;;2.45;2.25;;;16.90;41.10;;;;;;5118715;27;20035;-64
2023/12/03 10:33:04;;;;;;;2.50;1.88;;;16.90;41.10;;;;;;5118558;27;20032;-67
2023/12/03 10:35:35;;;;;;;2.65;1.80;;;17.10;41.10;;;;;;5118437;27;20087;-67
2023/12/03 10:38:04;;;;;;;2.10;1.58;;;17.40;40.50;;;;;;5118164;27;20047;-66
2023/12/03 10:40:32;;;;;;;2.45;1.67;;;17.80;39.80;;;;;;5118518;27;20047;-67
2023/12/03 10:43:00;;;;;;;2.35;1.50;;;18.30;39.10;;;;;;5118164;27;20062;-67
2023/12/03 10:45:25;;;;;;;1.88;1.35;;;18.90;38.20;;;;;;5118032;27;20043;-67
2023/12/03 10:47:53;;;;;;;1.67;1.50;;;19.60;37.10;;;;;;5118078;27;20122;-64
2023/12/03 10:50:21;;;;;;;1.95;1.30;;;20.40;35.90;;;;;;5136585;27;20035;-66
2023/12/03 10:52:48;;;;;;;2.05;1.50;;;21.10;34.70;;;;;;5118007;27;20043;-67
2023/12/03 10:55:13;;;;;;;2.08;1.48;;;21.80;33.60;;;;;;5117870;27;20039;-64
2023/12/03 10:57:53;;;;;;;2.35;1.65;;;22.50;32.80;;;;;;5118014;27;20045;-67
2023/12/03 11:00:21;;;;;;;1.70;1.40;;;23.00;32.00;;;;;;5117820;27;20551;-67
2023/12/03 11:03:09;;;;;;;1.90;1.30;;;23.50;31.30;;;;;;5136670;27;20211;-66
2023/12/03 11:05:46;;;;;;;2.97;1.38;;;24.00;30.80;;;;;;5117848;27;20151;-66
2023/12/03 11:08:14;;;;;;;1.42;1.05;;;24.40;30.40;;;;;;5117510;27;20122;-64
2023/12/03 11:10:40;;;;;;;1.70;1.08;;;24.60;30.00;;;;;;5117485;27;20047;-68
2023/12/03 11:13:06;;;;;;;2.53;1.65;;;24.90;29.80;;;;;;5136386;27;20040;-67
2023/12/03 11:15:32;;;;;;;2.30;1.60;;;25.00;29.60;;;;;;5117696;27;20046;-67
2023/12/03 11:18:01;;;;;;;1.65;0.93;;;25.00;29.60;;;;;;5136025;27;20117;-67
2023/12/03 11:20:32;;;;;;;2.42;1.25;;;25.00;29.70;;;;;;5117425;27;20086;-67
2023/12/03 11:25:55;;;;;;;1.63;1.27;;;24.80;29.80;;;;;;5089455;27;20389;-64
2023/12/03 11:28:22;;;;;;;;;;;24.50;30.10;;;;;;5088628;28;20124;-67
2023/12/03 11:30:48;;;;;;;1.80;1.38;;;24.30;30.40;;;;;;5088566;28;19961;-64
2023/12/03 11:33:14;;;;;;;1.92;1.55;;;24.10;30.50;;;;;;5089307;28;20033;-67
2023/12/03 11:35:42;;;;;;;2.05;1.30;;;23.90;30.70;;;;;;5087918;28;20040;-64
2023/12/03 11:38:28;;;;;;;1.83;1.30;;;23.70;31.00;;;;;;5088221;28;20444;-67
2023/12/03 11:40:55;;;;;;;2.00;1.42;;;23.60;31.30;;;;;;5087726;28;20040;-67
2023/12/03 11:43:30;;;;;;;1.60;1.20;;;23.30;31.60;;;;;;5087770;28;20079;-67
2023/12/03 11:45:57;;;;;;;1.90;1.13;;;23.10;31.90;;;;;;5087802;28;20040;-67
2023/12/03 11:48:26;;;;;;;1.73;1.33;;;22.90;32.10;;;;;;5089006;28;20227;-66
2023/12/03 11:50:53;;;;;;;1.65;1.17;;;22.70;32.30;;;;;;5087746;28;20082;-67
2023/12/03 11:53:29;;;;;;;2.00;1.35;;;22.50;32.60;;;;;;5087707;28;20097;-67
2023/12/03 11:55:55;;;;;;;2.00;1.10;;;22.30;32.90;;;;;;5087531;28;20044;-67
2023/12/03 11:58:22;;;;;;;2.17;1.33;;;22.20;33.20;;;;;;5088884;28;20037;-67
2023/12/03 12:00:48;;;;;;;2.20;1.58;;;22.00;33.40;;;;;;5088707;28;20036;-67
2023/12/03 12:03:14;;;;;;;1.88;1.40;;;21.80;33.60;;;;;;5087973;28;20434;-67
2023/12/03 12:05:48;;;;;;;2.30;1.73;;;21.60;33.80;;;;;;5088768;28;20036;-67
2023/12/03 12:08:18;;;;;;;1.63;1.30;;;21.50;34.10;;;;;;5087398;28;20051;-67
2023/12/03 12:10:44;;;;;;;1.67;1.35;;;21.30;34.30;;;;;;5088631;28;20094;-65
2023/12/03 12:13:10;;;;;;;1.55;1.40;;;21.20;34.50;;;;;;5088604;28;20064;-67
2023/12/03 12:15:36;;;;;;;1.48;1.33;;;21.00;34.80;;;;;;5088632;28;20025;-67
2023/12/03 12:18:03;;;;;;;2.70;1.98;;;20.90;35.00;;;;;;5088499;28;20048;-67
2023/12/03 12:20:30;;;;;;;1.60;1.30;;;20.70;35.20;;;;;;5087280;28;20502;-67
2023/12/03 12:22:56;;;;;;;1.98;1.58;;;20.60;35.40;;;;;;5087235;28;20068;-67
2023/12/03 12:25:25;;;;;;;3.65;1.75;;;20.50;35.60;;;;;;5086936;28;20071;-67
2023/12/03 12:27:51;;;;;;;1.98;1.65;;;20.30;35.70;;;;;;5086975;28;20048;-67
2023/12/03 12:30:18;;;;;;;1.98;1.48;;;20.20;35.80;;;;;;5087156;28;20047;-64
2023/12/03 12:32:45;;;;;;;1.90;1.30;;;20.10;36.00;;;;;;5087170;28;20139;-64
2023/12/03 12:35:12;;;;;;;1.73;1.30;;;20.00;36.20;;;;;;5083802;28;20052;-67
2023/12/03 12:37:38;;;;;;;1.95;1.60;;;19.90;36.40;;;;;;5073258;28;20076;-67
2023/12/03 12:40:07;;;;;;;2.17;1.58;;;19.70;36.50;;;;;;5074649;28;20042;-66
2023/12/03 12:42:33;;;;;;;2.13;1.80;;;19.70;36.70;;;;;;5074553;28;20403;-67
2023/12/03 12:44:58;;;;;;;1.90;1.35;;;19.50;36.80;;;;;;5073194;28;20044;-67
2023/12/03 12:47:35;;;;;;;2.40;1.75;;;19.40;37.00;;;;;;5073129;28;20422;-67
2023/12/03 12:50:01;;;;;;;2.45;1.95;;;19.30;37.20;;;;;;5073152;28;20032;-67